Terminal Aerodrome Forecast
Issued by NWS Central Illinois

Home | Current Version | Previous Version | Text Only | Print | Product List | Glossary On
Versions: 1 2 3 4 5 6 7 8 9 10 11 12 13 14 15 16 17 18 19 20 21 22 23 24 25 26 27 28 29
000
FTUS43 KILX 061735
TAFPIA
TAF
KPIA 061735Z 0618/0718 18012G20KT P6SM SCT070 BKN250
     FM062300 17008KT P6SM SKC
     FM070400 16005KT P6SM BKN100
     FM071400 19012G20KT P6SM SCT100=

USA.gov is the U.S. government's official web portal to all federal, state and local government web resources and services.